Time;durP1;ratioP1;P1;durP2;ratioP2;P2;SDS_P1;SDS_P2;PMS_P1;PMS_P2;Temp;Humidity;BMP_temperature;BMP_pressure;BME280_temperature;BME280_humidity;BME280_pressure;Samples;Min_cycle;Max_cycle;Signal;HPM_P1;HPM_P2
2022/11/19 00:00:53;;;;;;;30.35;13.60;;;;;;;;;;5014017;28;20033;-78
2022/11/19 00:03:21;;;;;;;31.00;14.10;;;;;;;;;;5012653;28;20033;-78
2022/11/19 00:05:48;;;;;;;31.42;13.98;;;;;;;;;;5014067;28;20025;-78
2022/11/19 00:08:16;;;;;;;31.45;13.65;;;;;;;;;;5014039;28;20022;-78
2022/11/19 00:10:42;;;;;;;29.85;13.52;;;;;;;;;;5014308;28;20030;-78
2022/11/19 00:13:08;;;;;;;35.97;13.35;;;;;;;;;;5025836;28;20057;-78
2022/11/19 00:15:35;;;;;;;30.10;13.93;;;;;;;;;;5015497;28;20052;-79
2022/11/19 00:18:01;;;;;;;31.48;13.85;;;;;;;;;;4996032;28;20416;-78
2022/11/19 00:20:28;;;;;;;26.38;14.25;;;;;;;;;;5013456;28;20030;-78
2022/11/19 00:22:56;;;;;;;25.30;12.93;;;;;;;;;;4995903;28;20050;-78
2022/11/19 00:25:22;;;;;;;27.23;13.13;;;;;;;;;;5023654;28;20033;-78
2022/11/19 00:27:48;;;;;;;27.58;13.43;;;;;;;;;;5033113;28;20108;-78
2022/11/19 00:30:14;;;;;;;27.73;13.43;;;;;;;;;;5033219;28;20416;-78
2022/11/19 00:32:40;;;;;;;24.83;13.32;;;;;;;;;;5015534;28;20053;-78
2022/11/19 00:35:07;;;;;;;29.95;14.45;;;;;;;;;;5015374;28;20391;-78
2022/11/19 00:37:33;;;;;;;30.02;13.60;;;;;;;;;;5033104;28;20037;-78
2022/11/19 00:40:00;;;;;;;31.50;14.20;;;;;;;;;;5033245;28;20025;-78
2022/11/19 00:42:26;;;;;;;27.45;13.88;;;;;;;;;;5032820;28;20025;-78
2022/11/19 00:44:52;;;;;;;29.13;14.32;;;;;;;;;;5033166;28;20029;-78
2022/11/19 00:47:18;;;;;;;29.35;14.60;;;;;;;;;;5015360;28;20052;-78
2022/11/19 00:49:44;;;;;;;35.70;15.88;;;;;;;;;;5015171;28;20029;-78
2022/11/19 00:52:10;;;;;;;31.55;14.73;;;;;;;;;;5032645;28;20054;-78
2022/11/19 00:54:36;;;;;;;30.60;14.68;;;;;;;;;;5033460;28;20038;-78
2022/11/19 00:57:02;;;;;;;31.30;14.85;;;;;;;;;;5032890;28;20036;-78
2022/11/19 00:59:28;;;;;;;29.65;15.32;;;;;;;;;;5032323;28;20060;-78
2022/11/19 01:01:54;;;;;;;29.48;15.23;;;;;;;;;;5032337;28;20025;-78
2022/11/19 01:04:21;;;;;;;30.70;15.45;;;;;;;;;;5014803;28;20037;-78
2022/11/19 01:06:47;;;;;;;31.77;15.52;;;;;;;;;;5032757;28;20029;-77
2022/11/19 01:09:13;;;;;;;32.38;16.17;;;;;;;;;;5014898;28;20025;-78
2022/11/19 01:11:39;;;;;;;28.25;15.43;;;;;;;;;;5032763;28;20071;-78
2022/11/19 01:14:06;;;;;;;28.33;15.85;;;;;;;;;;5013168;28;20096;-78
2022/11/19 01:16:36;;;;;;;27.17;15.05;;;;;;;;;;5013288;28;20034;-77
2022/11/19 01:19:03;;;;;;;30.85;15.75;;;;;;;;;;5013043;28;20026;-77
2022/11/19 01:21:30;;;;;;;29.45;14.93;;;;;;;;;;5012997;28;20022;-78
2022/11/19 01:23:57;;;;;;;25.70;14.52;;;;;;;;;;5013022;28;20105;-78
2022/11/19 01:26:23;;;;;;;29.10;14.75;;;;;;;;;;5013267;28;20033;-78
2022/11/19 01:28:49;;;;;;;23.98;13.85;;;;;;;;;;5012921;28;20038;-78
2022/11/19 01:31:17;;;;;;;29.80;14.05;;;;;;;;;;5012905;28;20022;-78
2022/11/19 01:33:43;;;;;;;24.27;14.20;;;;;;;;;;5013065;28;20026;-78
2022/11/19 01:36:14;;;;;;;26.33;14.45;;;;;;;;;;4995249;28;20022;-78
2022/11/19 01:38:41;;;;;;;22.58;13.43;;;;;;;;;;5012876;28;20025;-78
2022/11/19 01:41:07;;;;;;;26.30;14.60;;;;;;;;;;5012647;28;20022;-78
2022/11/19 01:43:44;;;;;;;24.40;14.27;;;;;;;;;;5012484;28;20026;-78
2022/11/19 01:46:11;;;;;;;37.70;15.95;;;;;;;;;;5012720;28;20037;-78
2022/11/19 01:48:43;;;;;;;27.63;14.65;;;;;;;;;;5012530;28;20033;-78
2022/11/19 01:51:21;;;;;;;27.40;15.05;;;;;;;;;;4995043;28;20520;-78
2022/11/19 01:53:49;;;;;;;25.60;13.55;;;;;;;;;;5011949;28;20472;-78
2022/11/19 01:56:16;;;;;;;24.33;14.40;;;;;;;;;;5012109;28;20117;-78
2022/11/19 01:58:45;;;;;;;26.42;15.05;;;;;;;;;;4994263;28;20029;-78
2022/11/19 02:01:11;;;;;;;27.20;14.88;;;;;;;;;;5013537;28;20048;-78
2022/11/19 02:03:39;;;;;;;26.20;15.15;;;;;;;;;;5015486;28;20034;-78
2022/11/19 02:06:05;;;;;;;27.77;16.00;;;;;;;;;;5015460;28;20026;-78
2022/11/19 02:08:34;;;;;;;27.05;15.55;;;;;;;;;;4997862;28;20033;-78
2022/11/19 02:11:19;;;;;;;29.17;16.42;;;;;;;;;;4997591;28;20037;-78
2022/11/19 02:13:49;;;;;;;29.77;16.10;;;;;;;;;;5014927;28;20524;-78
2022/11/19 02:16:26;;;;;;;28.58;15.98;;;;;;;;;;5015280;28;20488;-78
2022/11/19 02:19:00;;;;;;;33.28;17.00;;;;;;;;;;4997383;28;20041;-78
2022/11/19 02:21:32;;;;;;;30.30;16.27;;;;;;;;;;5034947;28;20056;-78
2022/11/19 02:24:16;;;;;;;32.38;16.95;;;;;;;;;;5034157;28;20041;-78
2022/11/19 02:26:42;;;;;;;29.38;16.73;;;;;;;;;;5020855;28;20037;-78
2022/11/19 02:29:24;;;;;;;31.98;16.88;;;;;;;;;;5035491;28;20418;-78
2022/11/19 02:32:00;;;;;;;32.35;18.50;;;;;;;;;;5035428;28;20029;-78
2022/11/19 02:34:31;;;;;;;30.05;17.15;;;;;;;;;;5035596;28;20087;-78
2022/11/19 02:37:02;;;;;;;32.50;17.58;;;;;;;;;;5035305;28;20118;-78
2022/11/19 02:39:39;;;;;;;31.27;17.65;;;;;;;;;;5035142;28;20363;-78
2022/11/19 02:42:09;;;;;;;34.35;18.88;;;;;;;;;;5035359;28;20525;-78
2022/11/19 02:47:29;;;;;;;37.05;19.63;;;;;;;;;;5035301;28;20048;-78
2022/11/19 02:49:59;;;;;;;35.25;19.27;;;;;;;;;;5034914;28;20498;-78
2022/11/19 02:52:27;;;;;;;37.13;19.95;;;;;;;;;;5034930;28;20056;-78
2022/11/19 02:54:53;;;;;;;37.95;21.05;;;;;;;;;;5035024;28;20075;-78
2022/11/19 02:57:19;;;;;;;38.65;21.83;;;;;;;;;;5035173;28;20479;-78
2022/11/19 03:05:28;;;;;;;34.80;19.92;;;;;;;;;;5034712;28;20037;-78
2022/11/19 03:07:55;;;;;;;40.17;20.83;;;;;;;;;;5034896;28;20025;-78
2022/11/19 03:10:23;;;;;;;38.53;21.20;;;;;;;;;;5034530;28;20115;-78
2022/11/19 03:12:51;;;;;;;37.95;21.08;;;;;;;;;;5024566;28;20041;-78
2022/11/19 03:18:14;;;;;;;39.00;21.25;;;;;;;;;;5014998;28;20128;-78
2022/11/19 03:20:44;;;;;;;37.35;21.10;;;;;;;;;;5014909;28;20030;-78
2022/11/19 03:23:13;;;;;;;37.90;20.85;;;;;;;;;;5014567;28;20575;-78
2022/11/19 03:25:50;;;;;;;37.63;20.95;;;;;;;;;;5028514;28;20546;-78
2022/11/19 03:28:19;;;;;;;39.33;20.90;;;;;;;;;;5034475;28;20488;-78
2022/11/19 03:30:46;;;;;;;37.08;20.23;;;;;;;;;;5034713;28;20025;-78
2022/11/19 03:33:19;;;;;;;36.45;20.95;;;;;;;;;;5016490;28;20440;-78
2022/11/19 03:35:45;;;;;;;;;;;;;;;;;;5034778;28;20029;-77
2022/11/19 03:38:14;;;;;;;37.63;20.75;;;;;;;;;;5034127;28;19912;-78
2022/11/19 03:40:40;;;;;;;35.42;20.13;;;;;;;;;;5016113;28;20033;-78
2022/11/19 03:43:09;;;;;;;40.78;21.13;;;;;;;;;;5034283;28;20026;-78
2022/11/19 03:45:38;;;;;;;38.22;20.42;;;;;;;;;;5034113;28;20475;-78
2022/11/19 03:48:05;;;;;;;36.75;20.15;;;;;;;;;;5034252;28;20021;-78
2022/11/19 03:50:50;;;;;;;36.90;20.70;;;;;;;;;;5016261;28;20079;-78
2022/11/19 03:53:17;;;;;;;37.60;21.25;;;;;;;;;;5033877;28;20036;-78
2022/11/19 03:55:52;;;;;;;35.75;20.05;;;;;;;;;;5033752;28;20033;-78
2022/11/19 03:58:18;;;;;;;36.40;20.58;;;;;;;;;;5016112;28;20116;-78
2022/11/19 04:00:44;;;;;;;38.53;20.20;;;;;;;;;;5033859;28;20057;-78
2022/11/19 04:03:10;;;;;;;38.13;20.90;;;;;;;;;;5033464;28;20072;-78
2022/11/19 04:05:36;;;;;;;35.35;20.67;;;;;;;;;;5033615;28;20033;-78
2022/11/19 04:08:02;;;;;;;37.70;20.42;;;;;;;;;;5015868;28;20049;-78
2022/11/19 04:10:28;;;;;;;35.97;20.85;;;;;;;;;;5033441;28;20116;-77
2022/11/19 04:12:54;;;;;;;38.17;19.88;;;;;;;;;;5023221;28;20108;-78
2022/11/19 04:15:20;;;;;;;35.22;18.83;;;;;;;;;;5013428;28;20030;-78
2022/11/19 04:17:47;;;;;;;35.20;18.85;;;;;;;;;;5013949;28;20076;-78
2022/11/19 04:20:13;;;;;;;34.63;19.48;;;;;;;;;;5013382;28;20038;-78
2022/11/19 04:22:39;;;;;;;38.00;20.48;;;;;;;;;;5013517;28;20025;-77
2022/11/19 04:25:05;;;;;;;33.53;18.73;;;;;;;;;;5017823;28;20022;-78
2022/11/19 04:27:31;;;;;;;35.63;19.67;;;;;;;;;;5015867;28;20033;-78
2022/11/19 04:29:57;;;;;;;32.30;18.35;;;;;;;;;;5033395;28;20048;-78
2022/11/19 04:32:23;;;;;;;36.30;19.58;;;;;;;;;;5013808;28;20033;-78
2022/11/19 04:34:49;;;;;;;34.05;19.25;;;;;;;;;;5013484;28;20049;-78
2022/11/19 04:37:15;;;;;;;36.35;19.50;;;;;;;;;;4995750;28;20033;-78
2022/11/19 04:39:41;;;;;;;39.85;20.38;;;;;;;;;;5013349;28;20117;-78
2022/11/19 04:42:07;;;;;;;35.55;19.33;;;;;;;;;;5014050;28;20400;-78
2022/11/19 04:44:33;;;;;;;40.25;20.20;;;;;;;;;;5015706;28;20357;-78
2022/11/19 04:46:59;;;;;;;35.75;19.52;;;;;;;;;;5032829;28;20355;-78
2022/11/19 04:49:25;;;;;;;35.03;19.33;;;;;;;;;;5015559;28;20034;-78
2022/11/19 04:51:51;;;;;;;41.92;19.92;;;;;;;;;;5032476;28;20056;-78
2022/11/19 04:54:18;;;;;;;36.80;19.23;;;;;;;;;;5032892;28;20041;-78
2022/11/19 04:56:44;;;;;;;36.00;18.75;;;;;;;;;;5031351;28;20037;-78
2022/11/19 04:59:10;;;;;;;38.10;20.70;;;;;;;;;;5033136;28;20030;-78
2022/11/19 05:01:36;;;;;;;37.88;20.23;;;;;;;;;;5032756;28;20091;-78
2022/11/19 05:04:02;;;;;;;37.78;20.45;;;;;;;;;;5032636;28;20095;-78
2022/11/19 05:06:28;;;;;;;36.80;20.63;;;;;;;;;;5032980;28;20032;-78
2022/11/19 05:08:54;;;;;;;38.70;18.98;;;;;;;;;;5015014;28;20518;-78
2022/11/19 05:11:20;;;;;;;37.42;19.67;;;;;;;;;;5032602;28;20037;-78
2022/11/19 05:13:46;;;;;;;40.10;20.02;;;;;;;;;;5031302;28;20029;-78
2022/11/19 05:16:12;;;;;;;36.88;19.15;;;;;;;;;;5032801;28;20033;-78
2022/11/19 05:18:38;;;;;;;36.83;20.77;;;;;;;;;;5032273;28;20034;-78
2022/11/19 05:21:04;;;;;;;37.15;19.42;;;;;;;;;;5032639;28;20057;-78
2022/11/19 05:23:30;;;;;;;41.05;20.38;;;;;;;;;;5032503;28;20025;-78
2022/11/19 05:25:56;;;;;;;41.03;20.63;;;;;;;;;;5032186;28;20025;-78
2022/11/19 05:28:22;;;;;;;39.55;20.27;;;;;;;;;;5012929;28;20105;-78
2022/11/19 05:30:48;;;;;;;35.63;19.90;;;;;;;;;;5019140;28;20030;-78
2022/11/19 05:33:14;;;;;;;36.63;19.55;;;;;;;;;;5015233;28;20033;-78
2022/11/19 05:35:40;;;;;;;36.58;19.13;;;;;;;;;;5015358;28;20042;-78
2022/11/19 05:38:07;;;;;;;36.17;19.08;;;;;;;;;;5035719;28;20029;-78
2022/11/19 05:40:33;;;;;;;38.42;20.17;;;;;;;;;;5035579;28;20108;-77
2022/11/19 05:43:03;;;;;;;35.05;19.50;;;;;;;;;;5036188;28;20067;-78
2022/11/19 05:45:29;;;;;;;37.92;19.08;;;;;;;;;;5036007;28;20081;-77
2022/11/19 05:47:55;;;;;;;35.95;19.33;;;;;;;;;;5035974;28;20025;-78
2022/11/19 05:50:21;;;;;;;42.60;19.42;;;;;;;;;;5018309;28;20060;-77
2022/11/19 05:52:47;;;;;;;37.40;19.83;;;;;;;;;;5035944;28;20050;-77
2022/11/19 05:55:14;;;;;;;37.10;19.98;;;;;;;;;;5018832;28;20044;-77
2022/11/19 05:57:40;;;;;;;37.03;19.17;;;;;;;;;;5035933;28;20101;-77
2022/11/19 06:00:06;;;;;;;38.40;19.13;;;;;;;;;;5035910;28;20060;-78
2022/11/19 06:02:32;;;;;;;34.38;18.35;;;;;;;;;;5035918;28;20620;-78
2022/11/19 06:04:58;;;;;;;38.35;20.23;;;;;;;;;;5018181;28;20506;-78
2022/11/19 06:07:24;;;;;;;35.95;19.02;;;;;;;;;;5018067;28;20042;-77
2022/11/19 06:09:51;;;;;;;38.42;18.98;;;;;;;;;;5018288;28;20114;-77
2022/11/19 06:12:17;;;;;;;37.10;18.23;;;;;;;;;;5031163;28;20030;-77
2022/11/19 06:14:43;;;;;;;35.80;17.70;;;;;;;;;;4998170;28;20032;-77
2022/11/19 06:17:09;;;;;;;34.08;18.60;;;;;;;;;;5015946;28;20037;-78
2022/11/19 06:19:35;;;;;;;36.00;19.08;;;;;;;;;;5006441;28;20375;-78
2022/11/19 06:22:01;;;;;;;34.97;18.92;;;;;;;;;;5035760;28;20025;-77
2022/11/19 06:24:28;;;;;;;37.55;19.85;;;;;;;;;;5013531;28;20034;-77
2022/11/19 06:26:54;;;;;;;33.97;17.60;;;;;;;;;;5035732;28;20036;-78
2022/11/19 06:29:20;;;;;;;32.97;18.60;;;;;;;;;;5035251;28;20412;-78
2022/11/19 06:31:47;;;;;;;32.20;17.75;;;;;;;;;;5035083;28;20049;-78
2022/11/19 06:34:13;;;;;;;35.35;18.65;;;;;;;;;;5035617;28;20029;-78
2022/11/19 06:36:39;;;;;;;33.72;17.33;;;;;;;;;;5017648;28;20030;-78
2022/11/19 06:39:05;;;;;;;33.85;18.15;;;;;;;;;;5035209;28;20025;-78
2022/11/19 06:41:31;;;;;;;33.88;17.38;;;;;;;;;;5018392;28;20034;-78
2022/11/19 06:43:57;;;;;;;36.30;18.98;;;;;;;;;;5015311;28;20041;-78
2022/11/19 06:46:23;;;;;;;35.10;17.27;;;;;;;;;;4981547;28;20022;-78
2022/11/19 06:48:49;;;;;;;34.47;18.13;;;;;;;;;;5015397;28;20096;-77
2022/11/19 06:51:15;;;;;;;35.20;18.00;;;;;;;;;;5015048;28;20416;-78
2022/11/19 06:53:41;;;;;;;38.00;19.15;;;;;;;;;;5014998;28;20042;-78
2022/11/19 06:56:07;;;;;;;34.65;18.50;;;;;;;;;;5015288;28;20034;-78
2022/11/19 06:58:34;;;;;;;32.95;18.55;;;;;;;;;;5015038;28;20030;-78
2022/11/19 07:01:00;;;;;;;34.92;18.10;;;;;;;;;;5015393;28;20083;-78
2022/11/19 07:03:26;;;;;;;32.97;18.02;;;;;;;;;;5015073;28;20080;-78
2022/11/19 07:05:57;;;;;;;35.47;19.60;;;;;;;;;;5014933;28;20034;-77
2022/11/19 07:08:23;;;;;;;36.67;18.45;;;;;;;;;;5014747;28;20088;-77
2022/11/19 07:10:49;;;;;;;34.83;17.73;;;;;;;;;;5014949;28;20492;-77
2022/11/19 07:13:15;;;;;;;37.70;18.52;;;;;;;;;;5027556;28;20033;-78
2022/11/19 07:15:42;;;;;;;35.75;17.52;;;;;;;;;;5016991;28;20120;-77
2022/11/19 07:18:08;;;;;;;34.05;17.98;;;;;;;;;;5034444;28;20427;-78
2022/11/19 07:20:34;;;;;;;41.20;19.15;;;;;;;;;;5034423;28;20032;-77
2022/11/19 07:23:00;;;;;;;33.63;17.58;;;;;;;;;;5016865;28;20022;-78
2022/11/19 07:25:27;;;;;;;33.90;18.27;;;;;;;;;;5032518;28;20045;-78
2022/11/19 07:27:53;;;;;;;38.10;17.83;;;;;;;;;;5034288;28;20026;-77
2022/11/19 07:30:19;;;;;;;35.70;18.13;;;;;;;;;;5034291;28;20037;-77
2022/11/19 07:32:45;;;;;;;32.65;17.35;;;;;;;;;;5034355;28;20488;-78
2022/11/19 07:35:11;;;;;;;32.13;17.17;;;;;;;;;;5034181;28;20025;-78
2022/11/19 07:37:38;;;;;;;33.72;17.17;;;;;;;;;;5016694;28;20057;-77
2022/11/19 07:40:04;;;;;;;37.63;17.95;;;;;;;;;;5033957;28;20025;-77
2022/11/19 07:42:49;;;;;;;35.47;18.15;;;;;;;;;;5014786;28;20033;-77
2022/11/19 07:45:15;;;;;;;34.95;18.08;;;;;;;;;;5017997;28;20028;-77
2022/11/19 07:47:41;;;;;;;36.83;19.33;;;;;;;;;;5017863;28;20045;-78
2022/11/19 07:50:08;;;;;;;35.88;18.85;;;;;;;;;;4996235;28;20026;-78
2022/11/19 07:52:34;;;;;;;36.95;19.25;;;;;;;;;;5013287;28;20186;-77
2022/11/19 07:55:00;;;;;;;32.38;17.45;;;;;;;;;;5013687;28;20053;-78
2022/11/19 07:57:26;;;;;;;37.38;18.77;;;;;;;;;;5013862;28;20026;-77
2022/11/19 07:59:52;;;;;;;36.05;18.30;;;;;;;;;;5012983;28;20022;-75
2022/11/19 08:02:18;;;;;;;36.38;19.38;;;;;;;;;;4996057;28;20117;-80
2022/11/19 08:04:44;;;;;;;33.53;17.67;;;;;;;;;;5021570;28;20025;-79
2022/11/19 08:07:10;;;;;;;39.22;19.30;;;;;;;;;;5018766;28;20030;-79
2022/11/19 08:09:36;;;;;;;36.05;18.65;;;;;;;;;;5023544;28;20030;-79
2022/11/19 08:12:02;;;;;;;34.83;17.75;;;;;;;;;;5026089;28;20031;-79
2022/11/19 08:14:28;;;;;;;35.50;17.83;;;;;;;;;;5033137;28;20022;-79
2022/11/19 08:19:47;;;;;;;;;;;;;;;;;;5002205;28;20038;-79
2022/11/19 08:22:13;;;;;;;35.17;16.75;;;;;;;;;;5021599;28;19911;-79
2022/11/19 08:24:39;;;;;;;37.20;17.23;;;;;;;;;;5020134;28;20113;-79
2022/11/19 08:27:05;;;;;;;30.45;16.67;;;;;;;;;;5000994;28;20081;-79
2022/11/19 08:29:31;;;;;;;35.03;19.08;;;;;;;;;;5004330;28;20108;-78
2022/11/19 08:31:57;;;;;;;31.67;17.55;;;;;;;;;;5024459;28;20037;-79
2022/11/19 08:34:23;;;;;;;33.58;17.20;;;;;;;;;;5032415;28;20037;-79
2022/11/19 08:36:50;;;;;;;31.58;15.88;;;;;;;;;;5029395;28;20108;-79
2022/11/19 08:39:16;;;;;;;32.17;16.73;;;;;;;;;;5026271;28;20033;-79
2022/11/19 08:44:27;;;;;;;35.33;17.98;;;;;;;;;;5028605;28;20041;-79
2022/11/19 08:46:53;;;;;;;30.55;16.55;;;;;;;;;;5029197;28;20036;-79
2022/11/19 08:49:19;;;;;;;29.52;16.08;;;;;;;;;;5023970;28;20041;-79
2022/11/19 08:51:45;;;;;;;32.95;17.15;;;;;;;;;;5005155;28;20053;-79
2022/11/19 08:54:12;;;;;;;33.17;16.85;;;;;;;;;;5032749;28;20030;-79
2022/11/19 08:56:38;;;;;;;31.40;16.30;;;;;;;;;;5025064;28;20026;-79
2022/11/19 08:59:04;;;;;;;32.35;16.27;;;;;;;;;;5026256;28;20025;-78
2022/11/19 09:01:30;;;;;;;29.40;15.52;;;;;;;;;;5019361;28;20376;-79
2022/11/19 09:03:56;;;;;;;30.60;15.55;;;;;;;;;;5020043;28;20014;-79
2022/11/19 09:06:23;;;;;;;27.60;14.77;;;;;;;;;;5027025;28;20029;-79
2022/11/19 09:08:49;;;;;;;30.58;15.00;;;;;;;;;;5026528;28;20032;-79
2022/11/19 09:11:16;;;;;;;27.92;14.63;;;;;;;;;;5036942;28;20017;-79
2022/11/19 09:13:42;;;;;;;29.25;14.55;;;;;;;;;;5002647;28;20509;-78
2022/11/19 09:16:09;;;;;;;28.00;14.55;;;;;;;;;;5017131;28;20021;-80
2022/11/19 09:18:39;;;;;;;25.55;14.10;;;;;;;;;;4999562;28;20397;-79
2022/11/19 09:21:06;;;;;;;29.20;15.27;;;;;;;;;;4999598;28;20088;-79
2022/11/19 09:23:32;;;;;;;27.65;14.40;;;;;;;;;;5017028;28;20084;-80
2022/11/19 09:25:59;;;;;;;25.38;13.63;;;;;;;;;;5018357;28;20061;-80
2022/11/19 09:28:26;;;;;;;28.15;15.32;;;;;;;;;;5017136;28;20034;-79
2022/11/19 09:30:59;;;;;;;26.02;13.80;;;;;;;;;;5016847;28;20100;-79
2022/11/19 09:33:26;;;;;;;26.58;14.68;;;;;;;;;;5017194;28;20472;-80
2022/11/19 09:35:52;;;;;;;26.33;14.15;;;;;;;;;;5019809;28;20029;-80
2022/11/19 09:38:18;;;;;;;27.77;14.10;;;;;;;;;;5036668;28;20018;-78
2022/11/19 09:40:45;;;;;;;25.90;13.77;;;;;;;;;;5035539;28;20033;-78
2022/11/19 09:43:31;;;;;;;24.60;12.60;;;;;;;;;;5036133;28;20021;-78
2022/11/19 09:46:03;;;;;;;26.83;12.70;;;;;;;;;;5036447;28;20026;-78
2022/11/19 09:48:34;;;;;;;28.10;13.40;;;;;;;;;;5027485;28;20049;-78
2022/11/19 09:51:03;;;;;;;22.05;12.05;;;;;;;;;;5016221;28;20049;-78
2022/11/19 09:53:32;;;;;;;24.65;12.48;;;;;;;;;;5016022;28;20073;-80
2022/11/19 09:55:59;;;;;;;22.52;13.02;;;;;;;;;;5016147;28;20026;-80
2022/11/19 09:58:27;;;;;;;21.45;11.40;;;;;;;;;;5015878;28;20029;-77
2022/11/19 10:00:53;;;;;;;23.55;13.13;;;;;;;;;;4998358;28;20095;-81
2022/11/19 10:03:21;;;;;;;21.45;11.38;;;;;;;;;;4982396;28;20054;-81
2022/11/19 10:06:06;;;;;;;26.90;12.93;;;;;;;;;;5018657;28;20026;-81
2022/11/19 10:08:38;;;;;;;19.77;11.48;;;;;;;;;;5022109;28;20104;-80
2022/11/19 10:11:04;;;;;;;28.30;13.07;;;;;;;;;;5016086;28;20102;-81
2022/11/19 10:13:39;;;;;;;23.95;11.85;;;;;;;;;;5013313;28;20037;-81
2022/11/19 10:16:15;;;;;;;23.80;12.02;;;;;;;;;;5016377;28;20037;-80
2022/11/19 10:18:52;;;;;;;22.67;11.30;;;;;;;;;;5035856;28;20075;-81
2022/11/19 10:21:26;;;;;;;20.85;11.75;;;;;;;;;;5035121;28;20032;-81
2022/11/19 10:24:22;;;;;;;20.38;11.23;;;;;;;;;;5035348;28;20022;-81
2022/11/19 10:26:58;;;;;;;20.33;11.48;;;;;;;;;;4965151;28;20055;-81
2022/11/19 10:29:27;;;;;;;23.88;11.63;;;;;;;;;;5017449;28;20499;-81
2022/11/19 10:32:06;;;;;;;20.48;10.93;;;;;;;;;;5018123;28;20024;-81
2022/11/19 10:34:35;;;;;;;20.02;10.23;;;;;;;;;;5015630;28;20076;-81
2022/11/19 10:37:03;;;;;;;19.23;10.55;;;;;;;;;;5015408;28;20022;-81
2022/11/19 10:39:32;;;;;;;19.80;11.05;;;;;;;;;;5015475;28;20085;-80
2022/11/19 10:42:02;;;;;;;20.55;11.30;;;;;;;;;;4997869;28;20025;-81
2022/11/19 10:44:38;;;;;;;19.38;10.23;;;;;;;;;;5015689;28;20026;-81
2022/11/19 10:47:05;;;;;;;17.33;10.43;;;;;;;;;;5051447;28;20017;-80
2022/11/19 10:49:34;;;;;;;23.08;12.00;;;;;;;;;;5054851;28;20506;-78
2022/11/19 10:52:00;;;;;;;19.25;10.43;;;;;;;;;;5043648;28;20045;-77
2022/11/19 10:54:28;;;;;;;17.45;9.73;;;;;;;;;;5016048;28;20037;-77
2022/11/19 10:56:55;;;;;;;19.35;10.80;;;;;;;;;;5013958;28;20033;-77
2022/11/19 10:59:25;;;;;;;17.48;10.18;;;;;;;;;;5029929;28;20025;-77
2022/11/19 11:01:54;;;;;;;18.90;10.43;;;;;;;;;;5034091;28;20033;-77
2022/11/19 11:04:24;;;;;;;17.83;10.43;;;;;;;;;;5033730;28;20017;-76
2022/11/19 11:06:57;;;;;;;18.33;10.23;;;;;;;;;;5033594;28;20025;-77
2022/11/19 11:09:33;;;;;;;16.52;9.38;;;;;;;;;;5032453;28;20025;-77
2022/11/19 11:14:53;;;;;;;17.23;9.20;;;;;;;;;;5017066;28;20495;-77
2022/11/19 11:17:30;;;;;;;16.42;10.00;;;;;;;;;;5007914;28;20099;-77
2022/11/19 11:20:01;;;;;;;16.88;9.40;;;;;;;;;;5019110;28;20103;-77
2022/11/19 11:22:27;;;;;;;17.85;9.38;;;;;;;;;;5024346;28;20119;-77
2022/11/19 11:24:53;;;;;;;17.27;9.25;;;;;;;;;;5025065;28;20537;-77
2022/11/19 11:27:19;;;;;;;16.60;9.30;;;;;;;;;;5022003;28;20453;-79
2022/11/19 11:29:46;;;;;;;17.33;9.48;;;;;;;;;;5024320;28;20026;-75
2022/11/19 11:32:29;;;;;;;16.58;9.20;;;;;;;;;;5023638;28;20026;-75
2022/11/19 11:34:56;;;;;;;17.27;9.77;;;;;;;;;;5022611;28;20010;-76
2022/11/19 11:37:22;;;;;;;16.92;9.45;;;;;;;;;;5026878;28;20041;-77
2022/11/19 11:39:49;;;;;;;21.13;9.55;;;;;;;;;;5023812;28;20512;-77
2022/11/19 11:42:19;;;;;;;15.18;8.98;;;;;;;;;;5004502;28;20112;-77
2022/11/19 11:44:56;;;;;;;19.08;9.60;;;;;;;;;;5020610;28;20021;-77
2022/11/19 11:47:28;;;;;;;15.02;8.77;;;;;;;;;;5025793;28;20080;-77
2022/11/19 11:50:04;;;;;;;15.93;8.85;;;;;;;;;;5020024;28;20018;-77
2022/11/19 11:52:41;;;;;;;18.75;8.95;;;;;;;;;;5019495;28;20057;-77
2022/11/19 11:55:13;;;;;;;13.98;7.85;;;;;;;;;;5018086;28;20119;-77
2022/11/19 11:57:53;;;;;;;16.23;8.05;;;;;;;;;;5025198;28;20476;-77
2022/11/19 12:00:39;;;;;;;15.48;8.48;;;;;;;;;;5024043;28;20026;-77
2022/11/19 12:03:06;;;;;;;13.73;7.68;;;;;;;;;;5024024;28;20146;-78
2022/11/19 12:05:50;;;;;;;12.00;7.28;;;;;;;;;;5015749;28;20053;-78
2022/11/19 12:08:16;;;;;;;13.57;7.70;;;;;;;;;;5018072;28;20021;-78
2022/11/19 12:10:49;;;;;;;13.90;8.00;;;;;;;;;;5020765;28;20058;-78
2022/11/19 12:13:24;;;;;;;12.48;7.82;;;;;;;;;;5008973;28;20091;-80
2022/11/19 12:16:07;;;;;;;14.40;7.93;;;;;;;;;;5023421;28;20048;-78
2022/11/19 12:18:43;;;;;;;12.60;7.68;;;;;;;;;;5016553;28;20089;-78
2022/11/19 12:21:18;;;;;;;12.68;6.82;;;;;;;;;;5022568;28;20026;-78
2022/11/19 12:23:55;;;;;;;12.73;7.38;;;;;;;;;;5023081;28;20034;-78
2022/11/19 12:26:27;;;;;;;11.23;6.97;;;;;;;;;;5026605;28;20472;-78
2022/11/19 12:28:53;;;;;;;;;;;;;;;;;;5032341;28;20029;-78
2022/11/19 12:31:19;;;;;;;12.13;6.93;;;;;;;;;;5019703;28;20383;-78
2022/11/19 12:33:48;;;;;;;12.02;6.78;;;;;;;;;;5016695;28;20029;-77
2022/11/19 12:36:32;;;;;;;12.40;6.55;;;;;;;;;;5020476;28;20022;-78
2022/11/19 12:39:02;;;;;;;12.55;6.65;;;;;;;;;;5021470;28;20095;-78
2022/11/19 12:41:28;;;;;;;10.32;6.68;;;;;;;;;;5021910;28;20026;-78
2022/11/19 12:43:58;;;;;;;11.75;6.78;;;;;;;;;;5027188;28;20030;-78
2022/11/19 12:46:27;;;;;;;10.60;6.13;;;;;;;;;;5023061;28;20103;-77
2022/11/19 12:48:59;;;;;;;12.23;5.72;;;;;;;;;;5023173;28;20029;-78
2022/11/19 12:51:31;;;;;;;9.35;6.05;;;;;;;;;;5004416;28;20459;-77
2022/11/19 12:54:03;;;;;;;11.10;5.90;;;;;;;;;;4983510;28;20050;-77
2022/11/19 12:56:40;;;;;;;10.05;5.95;;;;;;;;;;4985228;28;20030;-78
2022/11/19 12:59:06;;;;;;;9.73;5.57;;;;;;;;;;4983081;28;20023;-77
2022/11/19 13:01:38;;;;;;;8.80;5.35;;;;;;;;;;4988197;28;20030;-77
2022/11/19 13:04:04;;;;;;;7.78;5.18;;;;;;;;;;4991966;28;20026;-77
2022/11/19 13:06:35;;;;;;;8.95;5.13;;;;;;;;;;4991554;28;20534;-77
2022/11/19 13:09:03;;;;;;;8.23;5.03;;;;;;;;;;4992042;28;20028;-77
2022/11/19 13:11:35;;;;;;;7.70;4.90;;;;;;;;;;4991932;28;20029;-77
2022/11/19 13:14:14;;;;;;;9.03;4.77;;;;;;;;;;4991821;28;20029;-77
2022/11/19 13:16:41;;;;;;;8.05;4.85;;;;;;;;;;4992232;28;20581;-77
2022/11/19 13:19:14;;;;;;;9.02;4.68;;;;;;;;;;4990396;28;20454;-77
2022/11/19 13:21:47;;;;;;;8.00;4.93;;;;;;;;;;4992354;28;20089;-77
2022/11/19 13:24:33;;;;;;;8.20;5.18;;;;;;;;;;4989984;28;20030;-77
2022/11/19 13:27:03;;;;;;;6.30;4.28;;;;;;;;;;4983943;28;20027;-77
2022/11/19 13:29:47;;;;;;;8.98;4.50;;;;;;;;;;4991983;28;20029;-77
2022/11/19 13:32:17;;;;;;;8.18;4.53;;;;;;;;;;4991495;28;20521;-77
2022/11/19 13:35:02;;;;;;;6.85;4.10;;;;;;;;;;4982656;28;20033;-77
2022/11/19 13:37:31;;;;;;;8.18;5.72;;;;;;;;;;4989072;28;20084;-77
2022/11/19 13:40:02;;;;;;;7.70;4.55;;;;;;;;;;4998696;28;20100;-78
2022/11/19 13:45:15;;;;;;;7.85;4.40;;;;;;;;;;4972681;28;20819;-77
2022/11/19 13:47:45;;;;;;;7.25;3.92;;;;;;;;;;4981969;28;20170;-77
2022/11/19 13:50:30;;;;;;;9.73;4.40;;;;;;;;;;5000308;28;20108;-77
2022/11/19 13:52:59;;;;;;;9.95;4.28;;;;;;;;;;5022563;28;20045;-77
2022/11/19 13:55:28;;;;;;;10.35;4.45;;;;;;;;;;5029667;28;20033;-77
2022/11/19 13:57:55;;;;;;;6.80;3.95;;;;;;;;;;5027328;28;20435;-77
2022/11/19 14:00:26;;;;;;;8.38;3.90;;;;;;;;;;4986082;28;20101;-77
2022/11/19 14:02:55;;;;;;;6.93;3.90;;;;;;;;;;4997173;28;20547;-77
2022/11/19 14:05:24;;;;;;;7.35;4.45;;;;;;;;;;5014627;28;20078;-77
2022/11/19 14:07:50;;;;;;;8.07;3.90;;;;;;;;;;5014864;28;20033;-77
2022/11/19 14:10:36;;;;;;;6.97;3.92;;;;;;;;;;5014819;28;20117;-77
2022/11/19 14:13:05;;;;;;;6.15;4.00;;;;;;;;;;5025984;28;20017;-77
2022/11/19 14:27:22;;;;;;;7.65;3.67;;;;;;;;;;5027206;28;20040;-77
2022/11/19 14:29:48;;;;;;;10.50;4.07;;;;;;;;;;5016282;28;20038;-77
2022/11/19 14:32:14;;;;;;;6.72;4.13;;;;;;;;;;5031586;28;20033;-77
2022/11/19 14:34:40;;;;;;;6.18;3.72;;;;;;;;;;5011244;28;20026;-77
2022/11/19 14:37:12;;;;;;;8.20;3.45;;;;;;;;;;5034096;28;20110;-77
2022/11/19 14:39:43;;;;;;;6.90;4.00;;;;;;;;;;5033929;28;20499;-77
2022/11/19 14:42:17;;;;;;;6.22;3.92;;;;;;;;;;5032217;28;20025;-77
2022/11/19 14:44:44;;;;;;;6.70;3.67;;;;;;;;;;5017118;28;20025;-77
2022/11/19 14:47:22;;;;;;;6.97;3.78;;;;;;;;;;5013488;28;20014;-77
2022/11/19 14:49:52;;;;;;;8.27;4.22;;;;;;;;;;4996213;28;20038;-77
2022/11/19 14:52:20;;;;;;;5.72;3.28;;;;;;;;;;5013418;28;20058;-77
2022/11/19 14:54:51;;;;;;;5.90;3.58;;;;;;;;;;5022212;28;20036;-77
2022/11/19 14:57:31;;;;;;;5.20;3.47;;;;;;;;;;5031802;28;20042;-77
2022/11/19 15:00:00;;;;;;;6.28;4.03;;;;;;;;;;5023775;28;20061;-77
2022/11/19 15:02:30;;;;;;;7.63;4.50;;;;;;;;;;5020716;28;20121;-77
2022/11/19 15:05:02;;;;;;;7.25;4.57;;;;;;;;;;5045705;28;20435;-77
2022/11/19 15:07:37;;;;;;;8.32;4.93;;;;;;;;;;5026046;28;20029;-77